This is the latest recevied weather packets stored in our database for station/object SP9MLI-1. If no packets are shown the sender has not sent any weather packets the latest 10 day(s).
| Time | Temp. | Humidity | Pressure | Rain* | Wind** | Luminosity | Snow |
|---|---|---|---|---|---|---|---|
| 1777901892 | 23.89° C | 63% | 1013.3 hPa | 0 mm | - | - | - |
| 1777900996 | 23.89° C | 65% | 1013.3 hPa | 0 mm | - | - | - |
| 1777900093 | 25° C | 64% | 1013.7 hPa | 0 mm | - | - | - |
| 1777899192 | 25° C | 61% | 1013.7 hPa | 0 mm | - | - | - |
| 1777898336 | 25° C | 61% | 1013.3 hPa | 0 mm | - | - | - |
| 1777898297 | 25° C | 61% | 1013.3 hPa | 0 mm | - | - | - |
| 1777897405 | 25° C | 61% | 1013.7 hPa | 0 mm | - | - | - |
| 1777896505 | 25° C | 63% | 1013.7 hPa | 0 mm | - | - | - |
| 1777895661 | 25° C | 61% | 1013.3 hPa | 0 mm | - | - | - |
| 1777895594 | 25° C | 61% | 1013.3 hPa | 0 mm | - | - | - |
| 1777894695 | 23.89° C | 64% | 1013.3 hPa | 0 mm | - | - | - |
| 1777893793 | 24.44° C | 64% | 1013 hPa | 0 mm | - | - | - |
| 1777892944 | 25° C | 63% | 1013.3 hPa | 0 mm | - | - | - |
| 1777892894 | 25° C | 63% | 1013.3 hPa | 0 mm | - | - | - |
| 1777891994 | 25.56° C | 60% | 1013.3 hPa | 0 mm | - | - | - |
| 1777891099 | 25° C | 58% | 1013.3 hPa | 0 mm | - | - | - |
| 1777882093 | 18.89° C | 70% | 1010.9 hPa | 0 mm | - | - | - |
| 1777881193 | 18.89° C | 70% | 1010.9 hPa | 0 mm | - | - | - |
| 1777880293 | 18.89° C | 70% | 1010.9 hPa | 0 mm | - | - | - |
| 1777879394 | 18.89° C | 70% | 1010.9 hPa | 0 mm | - | - | - |
| 1777878564 | 18.33° C | 73% | 1011.3 hPa | 0 mm | - | - | - |
| 1777878494 | 18.33° C | 73% | 1011.3 hPa | 0 mm | - | - | - |
| 1777877594 | 18.89° C | 73% | 1011.3 hPa | 0 mm | - | - | - |
| 1777876694 | 18.89° C | 70% | 1011.3 hPa | 0 mm | - | - | - |
| 1777875794 | 18.89° C | 66% | 1010.9 hPa | 0 mm | - | - | - |
* Rain latest hour (hover to see other rain measurements)
** Current wind speed in m/s (hover to see current wind gust speed)